createdAt,value
2019-02-08T00:00:40.479Z,95711.37
2019-02-08T00:03:12.284Z,95723.27
2019-02-08T00:05:43.804Z,95729.19
2019-02-08T00:08:17.034Z,95729.36
2019-02-08T00:10:48.481Z,95734.14
2019-02-08T00:13:20.338Z,95731.27
2019-02-08T00:15:51.793Z,95736.90
2019-02-08T00:18:23.176Z,95735.25
2019-02-08T00:20:54.652Z,95733.66
2019-02-08T00:23:27.556Z,95731.73
2019-02-08T00:25:59.068Z,95737.91
2019-02-08T00:28:30.508Z,95732.70
2019-02-08T00:31:02.975Z,95741.98
2019-02-08T00:33:34.404Z,95732.55
2019-02-08T00:36:06.592Z,95733.69
2019-02-08T00:38:38.104Z,95741.77
2019-02-08T00:41:09.586Z,95743.94
2019-02-08T00:43:41.010Z,95747.80
2019-02-08T00:46:13.559Z,95748.88
2019-02-08T00:48:45.377Z,95749.75
2019-02-08T00:51:16.859Z,95749.47
2019-02-08T00:53:48.297Z,95750.34
2019-02-08T00:56:19.784Z,95751.95
2019-02-08T00:58:51.218Z,95753.69
2019-02-08T01:01:25.805Z,95757.44
2019-02-08T01:03:57.580Z,95765.05
2019-02-08T01:06:29.064Z,95760.58
2019-02-08T01:09:00.508Z,95761.76
2019-02-08T01:11:33.593Z,95760.37
2019-02-08T01:14:06.444Z,95758.30
2019-02-08T01:16:37.906Z,95766.01
2019-02-08T01:19:09.519Z,95770.20
2019-02-08T01:21:40.986Z,95761.00
2019-02-08T01:24:12.436Z,95764.36
2019-02-08T01:26:44.444Z,95760.09
2019-02-08T01:29:15.899Z,95764.66
2019-02-08T01:31:47.364Z,95765.86
2019-02-08T01:34:21.612Z,95772.06
2019-02-08T01:36:55.514Z,95771.42
2019-02-08T01:39:26.968Z,95768.61
2019-02-08T01:41:58.596Z,95770.63
2019-02-08T01:44:30.139Z,95770.53
2019-02-08T01:47:01.688Z,95760.47
2019-02-08T01:49:33.126Z,95768.27
2019-02-08T01:52:04.636Z,95769.97
2019-02-08T01:54:38.410Z,95769.28
2019-02-08T01:57:09.914Z,95769.55
2019-02-08T01:59:41.356Z,95767.34
2019-02-08T02:02:12.768Z,95774.38
2019-02-08T02:04:44.204Z,95781.48
2019-02-08T02:07:15.657Z,95779.92
2019-02-08T02:09:47.344Z,95783.09
2019-02-08T02:12:18.872Z,95788.23
2019-02-08T02:14:51.943Z,95786.45
2019-02-08T02:17:23.500Z,95782.17
2019-02-08T02:19:54.916Z,95786.52
2019-02-08T02:22:26.384Z,95783.55
2019-02-08T02:24:57.804Z,95788.59
2019-02-08T02:27:29.274Z,95787.77
2019-02-08T02:30:00.708Z,95783.95
2019-02-08T02:32:34.289Z,95784.67
2019-02-08T02:35:07.173Z,95789.81
2019-02-08T02:37:40.723Z,95785.39
2019-02-08T02:40:13.824Z,95788.77
2019-02-08T02:42:45.276Z,95791.56
2019-02-08T02:45:37.384Z,95797.92
2019-02-08T02:48:12.155Z,95801.45
2019-02-08T02:50:43.614Z,95804.18
2019-02-08T02:53:15.066Z,95795.83
2019-02-08T02:55:46.515Z,95798.24
2019-02-08T02:58:18.967Z,95803.94
2019-02-08T03:00:51.536Z,95806.27
2019-02-08T03:03:22.984Z,95804.17
2019-02-08T03:05:54.432Z,95803.81
2019-02-08T03:08:25.893Z,95800.81
2019-02-08T03:10:57.357Z,95798.24
2019-02-08T03:13:28.824Z,95801.89
2019-02-08T03:16:00.261Z,95802.25
2019-02-08T03:18:31.694Z,95802.89
2019-02-08T03:21:03.130Z,95802.81
2019-02-08T03:23:34.596Z,95808.28
2019-02-08T03:26:06.236Z,95797.39
2019-02-08T03:28:38.997Z,95803.05
2019-02-08T03:31:12.132Z,95801.64
2019-02-08T03:33:43.590Z,95806.22
2019-02-08T03:36:15.028Z,95802.77
2019-02-08T03:38:47.026Z,95806.98
2019-02-08T03:41:18.636Z,95800.05
2019-02-08T03:43:50.464Z,95807.45
2019-02-08T03:46:21.914Z,95805.92
2019-02-08T03:48:53.374Z,95809.78
2019-02-08T03:51:24.825Z,95806.72
2019-02-08T03:53:56.278Z,95805.17
2019-02-08T03:56:27.759Z,95802.35
2019-02-08T03:58:59.139Z,95804.41
2019-02-08T04:01:30.586Z,95810.87
2019-02-08T04:04:16.531Z,95809.31
2019-02-08T04:06:47.966Z,95804.41
2019-02-08T04:09:19.393Z,95807.08
2019-02-08T04:11:50.847Z,95801.91
2019-02-08T04:14:22.317Z,95810.54
2019-02-08T04:16:53.754Z,95805.77
2019-02-08T04:19:25.247Z,95807.02
2019-02-08T04:21:58.837Z,95805.27
2019-02-08T04:24:32.311Z,95805.79
2019-02-08T04:27:03.431Z,95812.12
2019-02-08T04:29:34.892Z,95804.97
2019-02-08T04:32:06.532Z,95809.35
2019-02-08T04:34:37.972Z,95806.22
2019-02-08T04:37:09.423Z,95802.91
2019-02-08T04:39:40.898Z,95804.41
2019-02-08T04:42:12.334Z,95801.76
2019-02-08T04:44:43.801Z,95798.14
2019-02-08T04:47:15.232Z,95797.55
2019-02-08T04:49:48.526Z,95789.22
2019-02-08T04:52:19.912Z,95791.52
2019-02-08T04:54:51.355Z,95793.75
2019-02-08T04:57:22.797Z,95785.63
2019-02-08T04:59:54.254Z,95794.23
2019-02-08T05:02:25.747Z,95795.37
2019-02-08T05:04:57.209Z,95794.98
2019-02-08T05:07:30.434Z,95796.78
2019-02-08T05:10:01.925Z,95801.95
2019-02-08T05:12:33.433Z,95799.08
2019-02-08T05:15:06.205Z,95803.98
2019-02-08T05:17:37.656Z,95801.87
2019-02-08T05:20:12.769Z,95804.41
2019-02-08T05:22:44.465Z,95809.11
2019-02-08T05:25:16.517Z,95812.29
2019-02-08T05:27:48.553Z,95804.98
2019-02-08T05:30:32.410Z,95809.39
2019-02-08T05:33:04.284Z,95810.48
2019-02-08T05:35:36.409Z,95809.97
2019-02-08T05:38:08.091Z,95811.00
2019-02-08T05:40:39.628Z,95808.84
2019-02-08T05:43:11.089Z,95807.03
2019-02-08T05:45:42.574Z,95805.61
2019-02-08T05:48:14.053Z,95803.57
2019-02-08T05:50:45.417Z,95810.72
2019-02-08T05:53:19.901Z,95796.23
2019-02-08T05:55:51.457Z,95804.78
2019-02-08T05:58:22.929Z,95811.44
2019-02-08T06:00:58.675Z,95804.16
2019-02-08T06:03:31.754Z,95799.42
2019-02-08T06:06:03.265Z,95809.45
2019-02-08T06:08:34.682Z,95812.48
2019-02-08T06:11:06.258Z,95809.72
2019-02-08T06:13:37.681Z,95812.50
2019-02-08T06:16:10.361Z,95804.41
2019-02-08T06:18:41.830Z,95809.27
2019-02-08T06:21:13.343Z,95812.49
2019-02-08T06:23:45.120Z,95810.98
2019-02-08T06:26:18.320Z,95814.29
2019-02-08T06:28:49.766Z,95814.98
2019-02-08T06:31:21.211Z,95819.13
2019-02-08T06:33:52.658Z,95816.34
2019-02-08T06:36:24.732Z,95819.13
2019-02-08T06:38:56.153Z,95822.34
2019-02-08T06:41:27.635Z,95820.47
2019-02-08T06:43:59.177Z,95819.63
2019-02-08T06:46:31.338Z,95813.86
2019-02-08T06:49:02.777Z,95814.80
2019-02-08T06:51:34.311Z,95809.75
2019-02-08T06:54:07.973Z,95813.16
2019-02-08T06:56:59.276Z,95814.44
2019-02-08T06:59:38.035Z,95815.57
2019-02-08T07:02:27.435Z,95813.48
2019-02-08T07:05:09.939Z,95813.59
2019-02-08T07:08:03.291Z,95811.51
2019-02-08T07:10:53.620Z,95810.00
2019-02-08T07:13:49.769Z,95810.98
2019-02-08T07:16:38.751Z,95813.45
2019-02-08T07:19:25.313Z,95813.84
2019-02-08T07:22:12.807Z,95816.16
2019-02-08T07:24:50.532Z,95826.45
2019-02-08T07:27:36.824Z,95838.53
2019-02-08T07:30:43.547Z,95823.24
2019-02-08T07:33:43.205Z,95860.64
2019-02-08T07:36:25.439Z,95815.02
2019-02-08T07:39:22.902Z,95839.54
2019-02-08T07:42:12.614Z,95812.52
2019-02-08T07:45:14.193Z,95873.80
2019-02-08T07:48:03.064Z,95813.08
2019-02-08T07:50:52.621Z,95813.48
2019-02-08T07:53:49.041Z,95853.31
2019-02-08T07:56:42.173Z,95889.34
2019-02-08T07:59:29.133Z,95827.98
2019-02-08T08:02:09.269Z,95831.12
2019-02-08T08:04:49.253Z,95825.64
2019-02-08T08:07:57.649Z,95846.80
2019-02-08T08:10:46.621Z,95816.77
2019-02-08T08:13:48.913Z,95829.38
2019-02-08T08:16:34.056Z,95830.13
2019-02-08T08:19:23.010Z,95810.98
2019-02-08T08:22:01.519Z,95817.22
2019-02-08T08:24:59.158Z,95810.32
2019-02-08T08:27:55.963Z,95814.64
2019-02-08T08:30:39.470Z,95806.44
2019-02-08T08:33:24.928Z,95801.72
2019-02-08T08:36:41.278Z,95809.33
2019-02-08T08:40:14.559Z,95811.17
2019-02-08T08:43:27.262Z,95815.97
2019-02-08T08:47:05.357Z,95809.23
2019-02-08T08:50:22.550Z,95810.22
2019-02-08T08:53:43.993Z,95812.81
2019-02-08T08:57:06.737Z,95805.06
2019-02-08T09:00:39.738Z,95800.13
2019-02-08T09:04:09.922Z,95792.80
2019-02-08T09:07:16.131Z,95799.00
2019-02-08T09:10:39.721Z,95797.92
2019-02-08T09:14:13.274Z,95799.43
2019-02-08T09:17:29.312Z,95795.27
2019-02-08T09:20:44.212Z,95787.82
2019-02-08T09:24:17.838Z,95828.98
2019-02-08T09:27:37.860Z,95806.61
2019-02-08T09:31:15.462Z,95784.19
2019-02-08T09:35:00.678Z,95773.10
2019-02-08T09:39:06.238Z,95774.55
2019-02-08T09:42:42.674Z,95772.19
2019-02-08T09:46:16.047Z,95772.33
2019-02-08T09:49:20.686Z,95775.19
2019-02-08T09:53:04.834Z,95770.95
2019-02-08T09:56:43.943Z,95771.00
2019-02-08T10:00:19.888Z,95753.73
2019-02-08T10:03:35.732Z,95763.87
2019-02-08T10:07:24.394Z,95762.34
2019-02-08T10:11:00.075Z,95765.31
2019-02-08T10:14:29.771Z,95762.43
2019-02-08T10:17:49.472Z,95759.86
2019-02-08T10:21:32.832Z,95760.55
2019-02-08T10:25:32.322Z,95757.86
2019-02-08T10:29:18.450Z,95753.97
2019-02-08T10:32:57.947Z,95735.09
2019-02-08T10:36:32.074Z,95732.76
2019-02-08T10:39:51.449Z,95735.16
2019-02-08T10:43:21.092Z,95725.87
2019-02-08T10:46:43.396Z,95716.34
2019-02-08T10:49:58.691Z,95716.25
2019-02-08T10:53:36.562Z,95720.03
2019-02-08T10:56:57.047Z,95721.18
2019-02-08T11:00:28.774Z,95723.98
2019-02-08T11:04:01.213Z,95729.56
2019-02-08T11:07:30.602Z,95728.13
2019-02-08T11:11:00.709Z,95726.63
2019-02-08T11:14:39.371Z,95714.73
2019-02-08T11:18:24.745Z,95700.23
2019-02-08T11:20:56.260Z,95691.73
2019-02-08T11:23:27.751Z,95689.83
2019-02-08T11:26:00.469Z,95688.41
2019-02-08T11:28:31.910Z,95689.47
2019-02-08T11:31:03.392Z,95688.22
2019-02-08T11:33:34.895Z,95689.64
2019-02-08T11:36:07.232Z,95683.02
2019-02-08T11:38:38.682Z,95680.08
2019-02-08T11:41:10.145Z,95676.38
2019-02-08T11:43:41.707Z,95678.09
2019-02-08T11:46:13.247Z,95675.56
2019-02-08T11:48:44.688Z,95677.57
2019-02-08T11:51:16.132Z,95676.18
2019-02-08T11:53:47.583Z,95679.24
2019-02-08T11:56:19.136Z,95677.02
2019-02-08T11:58:50.641Z,95674.78
2019-02-08T12:01:22.127Z,95666.73
2019-02-08T12:03:53.533Z,95664.29
2019-02-08T12:06:25.035Z,95661.80
2019-02-08T12:08:56.498Z,95655.56
2019-02-08T12:11:29.133Z,95651.77
2019-02-08T12:14:00.768Z,95648.02
2019-02-08T12:16:32.156Z,95649.09
2019-02-08T12:19:03.579Z,95638.88
2019-02-08T12:21:35.040Z,95635.80
2019-02-08T12:24:08.750Z,95632.72
2019-02-08T12:26:40.223Z,95633.16
2019-02-08T12:29:11.743Z,95632.46
2019-02-08T12:31:43.264Z,95620.17
2019-02-08T12:34:14.773Z,95621.91
2019-02-08T12:36:46.253Z,95610.91
2019-02-08T12:39:17.714Z,95615.11
2019-02-08T12:41:49.256Z,95603.56
2019-02-08T12:44:21.476Z,95593.92
2019-02-08T12:46:56.933Z,95591.89
2019-02-08T12:49:28.420Z,95588.77
2019-02-08T12:51:59.963Z,95585.34
2019-02-08T12:54:31.370Z,95584.66
2019-02-08T12:57:02.892Z,95580.88
2019-02-08T12:59:34.565Z,95575.03
2019-02-08T13:02:06.063Z,95570.77
2019-02-08T13:04:37.577Z,95562.20
2019-02-08T13:07:10.333Z,95557.04
2019-02-08T13:09:41.998Z,95552.75
2019-02-08T13:12:14.533Z,95548.17
2019-02-08T13:14:46.081Z,95549.05
2019-02-08T13:17:17.638Z,95552.29
2019-02-08T13:19:49.003Z,95542.30
2019-02-08T13:22:20.431Z,95543.23
2019-02-08T13:24:51.926Z,95543.31
2019-02-08T13:27:23.484Z,95535.31
2019-02-08T13:29:55.005Z,95536.31
2019-02-08T13:32:26.543Z,95537.00
2019-02-08T13:34:58.043Z,95534.75
2019-02-08T13:37:29.533Z,95528.50
2019-02-08T13:40:01.010Z,95527.23
2019-02-08T13:42:32.775Z,95531.17
2019-02-08T13:45:04.303Z,95522.73
2019-02-08T13:47:36.211Z,95517.95
2019-02-08T13:50:12.204Z,95508.52
2019-02-08T13:52:43.642Z,95512.05
2019-02-08T13:55:16.281Z,95519.44
2019-02-08T13:57:47.886Z,95516.97
2019-02-08T14:00:27.537Z,95514.91
2019-02-08T14:02:59.415Z,95511.61
2019-02-08T14:05:31.163Z,95507.23
2019-02-08T14:08:02.664Z,95509.18
2019-02-08T14:10:34.968Z,95505.52
2019-02-08T14:13:06.727Z,95501.80
2019-02-08T14:15:38.358Z,95498.91
2019-02-08T14:18:09.937Z,95500.97
2019-02-08T14:20:41.587Z,95498.39
2019-02-08T14:23:13.093Z,95490.36
2019-02-08T14:25:44.578Z,95481.34
2019-02-08T14:28:16.172Z,95482.95
2019-02-08T14:30:47.905Z,95479.80
2019-02-08T14:33:22.432Z,95483.27
2019-02-08T14:35:55.715Z,95482.03
2019-02-08T14:38:27.433Z,95474.96
2019-02-08T14:40:59.080Z,95472.48
2019-02-08T14:43:30.537Z,95464.50
2019-02-08T14:46:01.992Z,95454.16
2019-02-08T14:48:33.468Z,95453.66
2019-02-08T14:51:04.955Z,95449.55
2019-02-08T14:53:36.429Z,95448.55
2019-02-08T14:56:07.930Z,95438.53
2019-02-08T14:58:39.348Z,95435.30
2019-02-08T15:01:10.888Z,95431.22
2019-02-08T15:03:42.345Z,95424.72
2019-02-08T15:06:13.817Z,95428.03
2019-02-08T15:08:45.244Z,95417.30
2019-02-08T15:11:16.797Z,95409.09
2019-02-08T15:13:48.475Z,95411.44
2019-02-08T15:16:19.951Z,95408.96
2019-02-08T15:18:51.319Z,95409.07
2019-02-08T15:21:23.833Z,95406.26
2019-02-08T15:23:56.475Z,95398.97
2019-02-08T15:26:28.186Z,95406.86
2019-02-08T15:28:59.685Z,95407.55
2019-02-08T15:31:31.193Z,95404.03
2019-02-08T15:34:02.686Z,95408.96
2019-02-08T15:36:35.549Z,95408.84
2019-02-08T15:39:12.012Z,95406.38
2019-02-08T15:41:43.518Z,95404.72
2019-02-08T15:44:15.032Z,95399.77
2019-02-08T15:46:48.342Z,95392.13
2019-02-08T15:49:21.606Z,95394.95
2019-02-08T15:51:59.156Z,95383.27
2019-02-08T15:54:30.697Z,95384.63
2019-02-08T15:57:02.204Z,95384.03
2019-02-08T15:59:33.664Z,95379.31
2019-02-08T16:02:05.630Z,95375.95
2019-02-08T16:04:37.129Z,95371.60
2019-02-08T16:07:11.647Z,95371.05
2019-02-08T16:09:43.055Z,95368.80
2019-02-08T16:12:14.555Z,95359.62
2019-02-08T16:14:46.012Z,95362.06
2019-02-08T16:17:17.562Z,95360.08
2019-02-08T16:19:50.856Z,95359.09
2019-02-08T16:22:22.486Z,95345.11
2019-02-08T16:24:54.116Z,95348.72
2019-02-08T16:27:25.608Z,95347.20
2019-02-08T16:29:57.655Z,95341.34
2019-02-08T16:32:29.239Z,95336.75
2019-02-08T16:35:01.005Z,95332.75
2019-02-08T16:37:32.488Z,95328.99
2019-02-08T16:40:05.159Z,95338.37
2019-02-08T16:42:36.651Z,95345.85
2019-02-08T16:45:12.080Z,95338.77
2019-02-08T16:47:44.765Z,95334.56
2019-02-08T16:50:19.965Z,95331.86
2019-02-08T16:52:51.441Z,95327.60
2019-02-08T16:55:24.659Z,95316.94
2019-02-08T16:57:56.177Z,95319.84
2019-02-08T17:00:30.728Z,95316.80
2019-02-08T17:03:04.782Z,95325.27
2019-02-08T17:05:36.404Z,95318.38
2019-02-08T17:08:07.904Z,95319.11
2019-02-08T17:10:39.751Z,95322.16
2019-02-08T17:13:11.318Z,95322.33
2019-02-08T17:15:42.810Z,95321.83
2019-02-08T17:18:14.255Z,95322.77
2019-02-08T17:20:47.606Z,95327.31
2019-02-08T17:23:19.067Z,95330.63
2019-02-08T17:25:50.718Z,95329.26
2019-02-08T17:28:22.258Z,95328.00
2019-02-08T17:30:53.710Z,95329.18
2019-02-08T17:33:25.220Z,95331.12
2019-02-08T17:35:56.673Z,95320.28
2019-02-08T17:38:28.159Z,95314.44
2019-02-08T17:41:01.570Z,95310.27
2019-02-08T17:43:33.178Z,95311.80
2019-02-08T17:46:04.701Z,95309.47
2019-02-08T17:48:37.227Z,95302.09
2019-02-08T17:51:08.669Z,95297.14
2019-02-08T17:53:40.123Z,95301.10
2019-02-08T17:56:11.629Z,95296.05
2019-02-08T17:58:43.212Z,95292.00
2019-02-08T18:01:14.665Z,95294.22
2019-02-08T18:03:46.132Z,95295.43
2019-02-08T18:06:17.788Z,95288.33
2019-02-08T18:08:49.241Z,95289.27
2019-02-08T18:11:20.782Z,95287.43
2019-02-08T18:13:52.338Z,95288.13
2019-02-08T18:16:23.822Z,95275.98
2019-02-08T18:18:55.305Z,95280.50
2019-02-08T18:21:26.800Z,95280.63
2019-02-08T18:23:58.314Z,95285.30
2019-02-08T18:26:29.761Z,95275.52
2019-02-08T18:29:01.337Z,95274.40
2019-02-08T18:31:33.871Z,95262.19
2019-02-08T18:34:05.424Z,95264.28
2019-02-08T18:36:38.252Z,95263.58
2019-02-08T18:39:10.381Z,95267.84
2019-02-08T18:41:42.068Z,95264.90
2019-02-08T18:44:22.605Z,95259.75
2019-02-08T18:47:03.622Z,95257.70
2019-02-08T18:49:39.264Z,95271.30
2019-02-08T18:52:13.892Z,95259.41
2019-02-08T18:54:47.389Z,95266.20
2019-02-08T18:57:27.261Z,95259.92
2019-02-08T19:00:04.962Z,95262.22
2019-02-08T19:02:40.536Z,95261.08
2019-02-08T19:05:20.203Z,95259.23
2019-02-08T19:08:01.818Z,95259.94
2019-02-08T19:10:34.982Z,95256.83
2019-02-08T19:13:10.403Z,95246.74
2019-02-08T19:15:47.394Z,95235.77
2019-02-08T19:18:24.749Z,95234.44
2019-02-08T19:20:59.041Z,95236.28
2019-02-08T19:23:39.193Z,95228.56
2019-02-08T19:26:15.341Z,95224.02
2019-02-08T19:28:50.838Z,95234.81
2019-02-08T19:31:31.683Z,95235.66
2019-02-08T19:34:05.227Z,95227.45
2019-02-08T19:36:41.834Z,95227.05
2019-02-08T19:39:17.158Z,95226.80
2019-02-08T19:41:50.202Z,95221.66
2019-02-08T19:44:22.877Z,95226.02
2019-02-08T19:46:55.194Z,95218.25
2019-02-08T19:49:27.887Z,95211.92
2019-02-08T19:52:00.220Z,95210.30
2019-02-08T19:54:32.539Z,95215.38
2019-02-08T19:57:05.206Z,95204.55
2019-02-08T19:59:37.287Z,95202.42
2019-02-08T20:02:10.639Z,95205.72
2019-02-08T20:04:42.755Z,95204.82
2019-02-08T20:07:14.746Z,95204.49
2019-02-08T20:09:46.688Z,95204.23
2019-02-08T20:12:19.053Z,95206.87
2019-02-08T20:14:51.205Z,95206.16
2019-02-08T20:17:23.785Z,95203.78
2019-02-08T20:19:55.688Z,95204.19
2019-02-08T20:22:27.591Z,95204.73
2019-02-08T20:24:59.512Z,95205.95
2019-02-08T20:27:31.164Z,95212.09
2019-02-08T20:30:03.007Z,95213.30
2019-02-08T20:32:34.687Z,95209.09
2019-02-08T20:35:08.978Z,95213.86
2019-02-08T20:37:41.140Z,95211.59
2019-02-08T20:40:17.595Z,95213.41
2019-02-08T20:42:49.920Z,95200.48
2019-02-08T20:45:26.003Z,95201.23
2019-02-08T20:47:59.174Z,95197.57
2019-02-08T20:50:31.234Z,95205.54
2019-02-08T20:53:04.833Z,95211.03
2019-02-08T20:55:38.019Z,95210.58
2019-02-08T20:58:12.137Z,95210.86
2019-02-08T21:00:49.681Z,95218.26
2019-02-08T21:03:22.168Z,95223.30
2019-02-08T21:05:53.813Z,95216.23
2019-02-08T21:08:25.591Z,95215.61
2019-02-08T21:10:57.244Z,95208.80
2019-02-08T21:13:28.798Z,95204.96
2019-02-08T21:16:00.271Z,95202.04
2019-02-08T21:18:31.774Z,95202.70
2019-02-08T21:21:03.249Z,95201.69
2019-02-08T21:23:34.750Z,95198.64
2019-02-08T21:26:06.563Z,95188.83
2019-02-08T21:28:38.220Z,95195.51
2019-02-08T21:31:09.898Z,95198.07
2019-02-08T21:33:41.568Z,95197.53
2019-02-08T21:36:15.057Z,95189.09
2019-02-08T21:38:46.661Z,95189.84
2019-02-08T21:41:18.276Z,95193.96
2019-02-08T21:43:50.158Z,95184.06
2019-02-08T21:46:22.860Z,95185.52
2019-02-08T21:48:54.362Z,95182.42
2019-02-08T21:51:26.990Z,95181.86
2019-02-08T21:53:58.595Z,95174.91
2019-02-08T21:56:30.079Z,95178.22
2019-02-08T21:59:06.222Z,95176.05
2019-02-08T22:01:34.736Z,95172.56
2019-02-08T22:04:06.455Z,95177.66
2019-02-08T22:06:37.956Z,95151.80
2019-02-08T22:09:10.522Z,95166.86
2019-02-08T22:11:42.847Z,95156.07
2019-02-08T22:14:14.407Z,95155.06
2019-02-08T22:16:45.985Z,95151.60
2019-02-08T22:19:17.508Z,95146.18
2019-02-08T22:21:48.984Z,95140.79
2019-02-08T22:24:20.456Z,95132.01
2019-02-08T22:26:51.927Z,95130.06
2019-02-08T22:29:23.468Z,95130.34
2019-02-08T22:31:54.834Z,95127.31
2019-02-08T22:34:26.339Z,95119.81
2019-02-08T22:36:57.954Z,95118.52
2019-02-08T22:39:29.399Z,95116.97
2019-02-08T22:42:00.917Z,95118.17
2019-02-08T22:44:32.844Z,95111.77
2019-02-08T22:47:04.300Z,95105.55
2019-02-08T22:49:35.919Z,95100.31
2019-02-08T22:52:07.402Z,95098.66
2019-02-08T22:54:38.909Z,95104.80
2019-02-08T22:57:10.322Z,95100.05
2019-02-08T22:59:42.182Z,95100.95
2019-02-08T23:02:14.174Z,95106.64
2019-02-08T23:04:45.847Z,95090.78
2019-02-08T23:07:17.366Z,95085.03
2019-02-08T23:09:48.970Z,95086.59
2019-02-08T23:12:20.486Z,95084.48
2019-02-08T23:14:52.161Z,95084.92
2019-02-08T23:17:23.826Z,95080.00
2019-02-08T23:19:55.296Z,95084.09
2019-02-08T23:22:26.788Z,95084.75
2019-02-08T23:24:58.288Z,95086.03
2019-02-08T23:27:29.814Z,95073.77
2019-02-08T23:30:01.307Z,95076.61
2019-02-08T23:32:34.012Z,95069.80
2019-02-08T23:35:06.736Z,95071.28
2019-02-08T23:37:38.188Z,95080.99
2019-02-08T23:40:09.741Z,95078.44
2019-02-08T23:42:41.168Z,95073.66
2019-02-08T23:45:13.062Z,95061.76
2019-02-08T23:47:44.602Z,95066.81
2019-02-08T23:50:16.148Z,95063.41
2019-02-08T23:52:47.615Z,95056.81
2019-02-08T23:55:20.098Z,95059.92
2019-02-08T23:57:51.594Z,95066.77
